sensor_id;sensor_type;location;lat;lon;timestamp;P1;durP1;ratioP1;P2;durP2;ratioP2
80557;SDS011;69901;43.524;-5.636;2023-06-04T00:00:55;18.33;;;9.90;;
80557;SDS011;69901;43.524;-5.636;2023-06-04T00:03:22;20.67;;;10.20;;
80557;SDS011;69901;43.524;-5.636;2023-06-04T00:05:47;18.70;;;10.00;;
80557;SDS011;69901;43.524;-5.636;2023-06-04T00:08:13;20.27;;;10.77;;
80557;SDS011;69901;43.524;-5.636;2023-06-04T00:10:38;20.23;;;10.10;;
80557;SDS011;69901;43.524;-5.636;2023-06-04T00:13:05;19.77;;;10.55;;
80557;SDS011;69901;43.524;-5.636;2023-06-04T00:15:30;21.53;;;10.20;;
80557;SDS011;69901;43.524;-5.636;2023-06-04T00:17:55;20.07;;;11.00;;
80557;SDS011;69901;43.524;-5.636;2023-06-04T00:20:21;21.38;;;10.55;;
80557;SDS011;69901;43.524;-5.636;2023-06-04T00:22:47;20.23;;;11.07;;
80557;SDS011;69901;43.524;-5.636;2023-06-04T00:25:12;19.60;;;10.97;;
80557;SDS011;69901;43.524;-5.636;2023-06-04T00:27:37;18.07;;;9.83;;
80557;SDS011;69901;43.524;-5.636;2023-06-04T00:30:03;18.63;;;10.23;;
80557;SDS011;69901;43.524;-5.636;2023-06-04T00:32:29;19.50;;;11.48;;
80557;SDS011;69901;43.524;-5.636;2023-06-04T00:34:55;18.57;;;10.80;;
80557;SDS011;69901;43.524;-5.636;2023-06-04T00:37:22;19.90;;;11.48;;
80557;SDS011;69901;43.524;-5.636;2023-06-04T00:39:48;20.37;;;11.80;;
80557;SDS011;69901;43.524;-5.636;2023-06-04T00:42:13;24.03;;;11.87;;
80557;SDS011;69901;43.524;-5.636;2023-06-04T00:44:38;20.35;;;11.98;;
80557;SDS011;69901;43.524;-5.636;2023-06-04T00:47:08;21.25;;;11.45;;
80557;SDS011;69901;43.524;-5.636;2023-06-04T00:49:33;27.80;;;12.27;;
80557;SDS011;69901;43.524;-5.636;2023-06-04T00:51:58;23.00;;;11.93;;
80557;SDS011;69901;43.524;-5.636;2023-06-04T00:54:24;28.50;;;13.60;;
80557;SDS011;69901;43.524;-5.636;2023-06-04T00:56:50;22.92;;;12.13;;
80557;SDS011;69901;43.524;-5.636;2023-06-04T00:59:15;23.30;;;12.50;;
80557;SDS011;69901;43.524;-5.636;2023-06-04T01:01:47;22.25;;;12.10;;
80557;SDS011;69901;43.524;-5.636;2023-06-04T01:07:00;20.73;;;11.27;;
80557;SDS011;69901;43.524;-5.636;2023-06-04T01:09:27;22.95;;;11.88;;
80557;SDS011;69901;43.524;-5.636;2023-06-04T01:11:53;21.13;;;12.03;;
80557;SDS011;69901;43.524;-5.636;2023-06-04T01:14:18;21.30;;;12.10;;
80557;SDS011;69901;43.524;-5.636;2023-06-04T01:16:53;21.37;;;11.00;;
80557;SDS011;69901;43.524;-5.636;2023-06-04T01:24:59;21.85;;;11.23;;
80557;SDS011;69901;43.524;-5.636;2023-06-04T01:27:27;22.75;;;11.93;;
80557;SDS011;69901;43.524;-5.636;2023-06-04T01:29:53;21.53;;;11.40;;
80557;SDS011;69901;43.524;-5.636;2023-06-04T01:32:21;21.40;;;12.07;;
80557;SDS011;69901;43.524;-5.636;2023-06-04T01:34:47;23.03;;;12.97;;
80557;SDS011;69901;43.524;-5.636;2023-06-04T01:37:12;22.77;;;12.40;;
80557;SDS011;69901;43.524;-5.636;2023-06-04T01:39:38;23.23;;;12.50;;
80557;SDS011;69901;43.524;-5.636;2023-06-04T01:42:03;20.83;;;12.33;;
80557;SDS011;69901;43.524;-5.636;2023-06-04T01:44:29;26.00;;;13.35;;
80557;SDS011;69901;43.524;-5.636;2023-06-04T01:46:54;26.20;;;12.30;;
80557;SDS011;69901;43.524;-5.636;2023-06-04T01:49:20;25.93;;;13.00;;
80557;SDS011;69901;43.524;-5.636;2023-06-04T01:51:45;27.50;;;14.10;;
80557;SDS011;69901;43.524;-5.636;2023-06-04T01:54:10;21.27;;;12.87;;
80557;SDS011;69901;43.524;-5.636;2023-06-04T01:56:35;22.20;;;11.67;;
80557;SDS011;69901;43.524;-5.636;2023-06-04T01:59:01;27.03;;;12.67;;
80557;SDS011;69901;43.524;-5.636;2023-06-04T02:01:27;22.70;;;12.10;;
80557;SDS011;69901;43.524;-5.636;2023-06-04T02:03:52;22.50;;;11.37;;
80557;SDS011;69901;43.524;-5.636;2023-06-04T02:06:17;23.60;;;12.00;;
80557;SDS011;69901;43.524;-5.636;2023-06-04T02:08:43;19.93;;;11.80;;
80557;SDS011;69901;43.524;-5.636;2023-06-04T02:11:08;20.20;;;12.10;;
80557;SDS011;69901;43.524;-5.636;2023-06-04T02:13:34;21.07;;;12.30;;
80557;SDS011;69901;43.524;-5.636;2023-06-04T02:15:59;22.83;;;12.95;;
80557;SDS011;69901;43.524;-5.636;2023-06-04T02:18:24;22.03;;;12.80;;
80557;SDS011;69901;43.524;-5.636;2023-06-04T02:20:50;19.93;;;11.83;;
80557;SDS011;69901;43.524;-5.636;2023-06-04T02:23:15;20.57;;;11.40;;
80557;SDS011;69901;43.524;-5.636;2023-06-04T02:25:41;19.40;;;11.70;;
80557;SDS011;69901;43.524;-5.636;2023-06-04T02:28:09;22.42;;;12.02;;
80557;SDS011;69901;43.524;-5.636;2023-06-04T02:30:35;20.10;;;12.43;;
80557;SDS011;69901;43.524;-5.636;2023-06-04T02:33:00;19.42;;;11.02;;
80557;SDS011;69901;43.524;-5.636;2023-06-04T02:35:26;24.17;;;12.90;;
80557;SDS011;69901;43.524;-5.636;2023-06-04T02:37:52;23.00;;;12.17;;
80557;SDS011;69901;43.524;-5.636;2023-06-04T02:40:17;19.52;;;11.50;;
80557;SDS011;69901;43.524;-5.636;2023-06-04T02:42:42;20.73;;;11.50;;
80557;SDS011;69901;43.524;-5.636;2023-06-04T02:45:07;21.87;;;11.60;;
80557;SDS011;69901;43.524;-5.636;2023-06-04T02:47:33;17.43;;;10.90;;
80557;SDS011;69901;43.524;-5.636;2023-06-04T02:49:58;19.23;;;11.60;;
80557;SDS011;69901;43.524;-5.636;2023-06-04T02:52:23;19.83;;;10.47;;
80557;SDS011;69901;43.524;-5.636;2023-06-04T02:54:50;19.45;;;11.20;;
80557;SDS011;69901;43.524;-5.636;2023-06-04T02:57:15;19.70;;;11.27;;
80557;SDS011;69901;43.524;-5.636;2023-06-04T02:59:40;18.30;;;11.27;;
80557;SDS011;69901;43.524;-5.636;2023-06-04T03:02:06;21.80;;;12.03;;
80557;SDS011;69901;43.524;-5.636;2023-06-04T03:04:31;22.27;;;11.77;;
80557;SDS011;69901;43.524;-5.636;2023-06-04T03:07:00;19.77;;;12.37;;
80557;SDS011;69901;43.524;-5.636;2023-06-04T03:09:25;16.60;;;10.75;;
80557;SDS011;69901;43.524;-5.636;2023-06-04T03:11:50;18.97;;;10.70;;
80557;SDS011;69901;43.524;-5.636;2023-06-04T03:14:16;17.27;;;10.83;;
80557;SDS011;69901;43.524;-5.636;2023-06-04T03:16:43;19.65;;;11.00;;
80557;SDS011;69901;43.524;-5.636;2023-06-04T03:19:10;16.05;;;10.32;;
80557;SDS011;69901;43.524;-5.636;2023-06-04T03:21:36;17.55;;;10.38;;
80557;SDS011;69901;43.524;-5.636;2023-06-04T03:24:05;18.38;;;10.45;;
80557;SDS011;69901;43.524;-5.636;2023-06-04T03:26:30;16.87;;;10.47;;
80557;SDS011;69901;43.524;-5.636;2023-06-04T03:28:55;18.10;;;10.38;;
80557;SDS011;69901;43.524;-5.636;2023-06-04T03:31:21;18.37;;;11.20;;
80557;SDS011;69901;43.524;-5.636;2023-06-04T03:33:46;18.57;;;10.77;;
80557;SDS011;69901;43.524;-5.636;2023-06-04T03:36:11;18.90;;;11.03;;
80557;SDS011;69901;43.524;-5.636;2023-06-04T03:38:37;15.90;;;9.80;;
80557;SDS011;69901;43.524;-5.636;2023-06-04T03:41:02;17.10;;;10.43;;
80557;SDS011;69901;43.524;-5.636;2023-06-04T03:43:27;18.70;;;11.00;;
80557;SDS011;69901;43.524;-5.636;2023-06-04T03:45:53;19.43;;;11.43;;
80557;SDS011;69901;43.524;-5.636;2023-06-04T03:48:18;18.57;;;10.87;;
80557;SDS011;69901;43.524;-5.636;2023-06-04T03:50:43;20.93;;;11.90;;
80557;SDS011;69901;43.524;-5.636;2023-06-04T03:53:11;21.67;;;11.30;;
80557;SDS011;69901;43.524;-5.636;2023-06-04T03:55:36;19.63;;;11.48;;
80557;SDS011;69901;43.524;-5.636;2023-06-04T03:58:02;18.10;;;11.27;;
80557;SDS011;69901;43.524;-5.636;2023-06-04T04:00:27;20.13;;;11.50;;
80557;SDS011;69901;43.524;-5.636;2023-06-04T04:02:53;18.65;;;11.63;;
80557;SDS011;69901;43.524;-5.636;2023-06-04T04:05:18;17.93;;;11.53;;
80557;SDS011;69901;43.524;-5.636;2023-06-04T04:07:43;19.80;;;11.43;;
80557;SDS011;69901;43.524;-5.636;2023-06-04T04:10:09;20.00;;;12.37;;
80557;SDS011;69901;43.524;-5.636;2023-06-04T04:12:35;20.05;;;12.32;;
80557;SDS011;69901;43.524;-5.636;2023-06-04T04:15:00;23.23;;;14.30;;
80557;SDS011;69901;43.524;-5.636;2023-06-04T04:17:25;21.60;;;12.70;;
80557;SDS011;69901;43.524;-5.636;2023-06-04T04:19:51;25.40;;;13.37;;
80557;SDS011;69901;43.524;-5.636;2023-06-04T04:22:16;19.00;;;12.50;;
80557;SDS011;69901;43.524;-5.636;2023-06-04T04:24:45;22.33;;;13.68;;
80557;SDS011;69901;43.524;-5.636;2023-06-04T04:27:10;21.17;;;11.93;;
80557;SDS011;69901;43.524;-5.636;2023-06-04T04:29:36;18.00;;;11.87;;
80557;SDS011;69901;43.524;-5.636;2023-06-04T04:32:02;21.27;;;12.75;;
80557;SDS011;69901;43.524;-5.636;2023-06-04T04:34:49;20.02;;;12.20;;
80557;SDS011;69901;43.524;-5.636;2023-06-04T04:37:16;21.83;;;10.73;;
80557;SDS011;69901;43.524;-5.636;2023-06-04T04:39:42;19.77;;;11.27;;
80557;SDS011;69901;43.524;-5.636;2023-06-04T04:42:07;19.23;;;12.27;;
80557;SDS011;69901;43.524;-5.636;2023-06-04T04:44:32;22.30;;;12.27;;
80557;SDS011;69901;43.524;-5.636;2023-06-04T04:46:58;24.33;;;12.40;;
80557;SDS011;69901;43.524;-5.636;2023-06-04T04:49:23;22.83;;;11.97;;
80557;SDS011;69901;43.524;-5.636;2023-06-04T04:51:48;22.33;;;11.97;;
80557;SDS011;69901;43.524;-5.636;2023-06-04T04:54:14;20.45;;;10.93;;
80557;SDS011;69901;43.524;-5.636;2023-06-04T04:56:39;20.00;;;11.90;;
80557;SDS011;69901;43.524;-5.636;2023-06-04T04:59:05;21.00;;;11.53;;
80557;SDS011;69901;43.524;-5.636;2023-06-04T05:01:30;20.13;;;10.33;;
80557;SDS011;69901;43.524;-5.636;2023-06-04T05:03:55;18.10;;;10.77;;
80557;SDS011;69901;43.524;-5.636;2023-06-04T05:06:20;20.33;;;10.50;;
80557;SDS011;69901;43.524;-5.636;2023-06-04T05:08:46;23.53;;;10.67;;
80557;SDS011;69901;43.524;-5.636;2023-06-04T05:11:11;20.93;;;11.63;;
80557;SDS011;69901;43.524;-5.636;2023-06-04T05:13:37;19.77;;;11.27;;
80557;SDS011;69901;43.524;-5.636;2023-06-04T05:16:02;21.30;;;11.53;;
80557;SDS011;69901;43.524;-5.636;2023-06-04T05:18:34;21.15;;;11.00;;
80557;SDS011;69901;43.524;-5.636;2023-06-04T05:20:59;23.75;;;11.45;;
80557;SDS011;69901;43.524;-5.636;2023-06-04T05:23:28;20.13;;;11.05;;
80557;SDS011;69901;43.524;-5.636;2023-06-04T05:25:59;21.45;;;12.88;;
80557;SDS011;69901;43.524;-5.636;2023-06-04T05:28:24;18.50;;;10.83;;
80557;SDS011;69901;43.524;-5.636;2023-06-04T05:30:51;23.70;;;12.20;;
80557;SDS011;69901;43.524;-5.636;2023-06-04T05:33:17;19.60;;;10.88;;
80557;SDS011;69901;43.524;-5.636;2023-06-04T05:35:45;18.00;;;10.25;;
80557;SDS011;69901;43.524;-5.636;2023-06-04T05:38:11;24.63;;;12.10;;
80557;SDS011;69901;43.524;-5.636;2023-06-04T05:40:43;23.95;;;11.68;;
80557;SDS011;69901;43.524;-5.636;2023-06-04T05:43:08;21.88;;;10.88;;
80557;SDS011;69901;43.524;-5.636;2023-06-04T05:45:33;22.03;;;11.27;;
80557;SDS011;69901;43.524;-5.636;2023-06-04T05:47:59;16.80;;;10.20;;
80557;SDS011;69901;43.524;-5.636;2023-06-04T05:50:24;21.83;;;10.50;;
80557;SDS011;69901;43.524;-5.636;2023-06-04T05:52:49;19.33;;;10.93;;
80557;SDS011;69901;43.524;-5.636;2023-06-04T05:55:15;21.23;;;11.30;;
80557;SDS011;69901;43.524;-5.636;2023-06-04T05:57:41;19.80;;;10.97;;
80557;SDS011;69901;43.524;-5.636;2023-06-04T06:00:07;22.87;;;11.23;;
80557;SDS011;69901;43.524;-5.636;2023-06-04T06:02:38;21.85;;;11.32;;
80557;SDS011;69901;43.524;-5.636;2023-06-04T06:05:04;20.73;;;11.38;;
80557;SDS011;69901;43.524;-5.636;2023-06-04T06:07:31;22.77;;;11.63;;
80557;SDS011;69901;43.524;-5.636;2023-06-04T06:09:57;22.03;;;12.00;;
80557;SDS011;69901;43.524;-5.636;2023-06-04T06:12:22;20.13;;;11.87;;
80557;SDS011;69901;43.524;-5.636;2023-06-04T06:14:47;21.57;;;12.37;;
80557;SDS011;69901;43.524;-5.636;2023-06-04T06:17:13;19.33;;;11.38;;
80557;SDS011;69901;43.524;-5.636;2023-06-04T06:19:38;20.83;;;11.50;;
80557;SDS011;69901;43.524;-5.636;2023-06-04T06:22:04;19.13;;;10.50;;
80557;SDS011;69901;43.524;-5.636;2023-06-04T06:24:29;20.90;;;11.53;;
80557;SDS011;69901;43.524;-5.636;2023-06-04T06:26:55;19.25;;;10.43;;
80557;SDS011;69901;43.524;-5.636;2023-06-04T06:29:20;20.07;;;10.40;;
80557;SDS011;69901;43.524;-5.636;2023-06-04T06:31:46;21.30;;;11.00;;
80557;SDS011;69901;43.524;-5.636;2023-06-04T06:34:11;17.70;;;10.63;;
80557;SDS011;69901;43.524;-5.636;2023-06-04T06:36:36;17.87;;;9.80;;
80557;SDS011;69901;43.524;-5.636;2023-06-04T06:39:02;16.87;;;9.50;;
80557;SDS011;69901;43.524;-5.636;2023-06-04T06:41:27;16.75;;;9.85;;
80557;SDS011;69901;43.524;-5.636;2023-06-04T06:43:54;17.35;;;10.35;;
80557;SDS011;69901;43.524;-5.636;2023-06-04T06:46:20;19.33;;;9.83;;
80557;SDS011;69901;43.524;-5.636;2023-06-04T06:48:45;20.80;;;10.53;;
80557;SDS011;69901;43.524;-5.636;2023-06-04T06:51:11;17.73;;;9.87;;
80557;SDS011;69901;43.524;-5.636;2023-06-04T06:53:36;17.45;;;10.38;;
80557;SDS011;69901;43.524;-5.636;2023-06-04T06:56:01;21.03;;;9.63;;
80557;SDS011;69901;43.524;-5.636;2023-06-04T06:58:27;21.37;;;11.00;;
80557;SDS011;69901;43.524;-5.636;2023-06-04T07:00:52;19.43;;;10.47;;
80557;SDS011;69901;43.524;-5.636;2023-06-04T07:03:19;17.08;;;10.02;;
80557;SDS011;69901;43.524;-5.636;2023-06-04T07:05:45;17.40;;;9.70;;
80557;SDS011;69901;43.524;-5.636;2023-06-04T07:08:10;16.27;;;9.67;;
80557;SDS011;69901;43.524;-5.636;2023-06-04T07:10:35;17.17;;;11.17;;
80557;SDS011;69901;43.524;-5.636;2023-06-04T07:13:01;20.10;;;11.63;;
80557;SDS011;69901;43.524;-5.636;2023-06-04T07:15:26;21.93;;;12.77;;
80557;SDS011;69901;43.524;-5.636;2023-06-04T07:17:51;19.20;;;11.73;;
80557;SDS011;69901;43.524;-5.636;2023-06-04T07:20:17;19.80;;;11.07;;
80557;SDS011;69901;43.524;-5.636;2023-06-04T07:22:42;17.55;;;10.07;;
80557;SDS011;69901;43.524;-5.636;2023-06-04T07:25:08;20.57;;;11.03;;
80557;SDS011;69901;43.524;-5.636;2023-06-04T07:27:33;18.67;;;10.87;;
80557;SDS011;69901;43.524;-5.636;2023-06-04T07:29:59;18.80;;;11.63;;
80557;SDS011;69901;43.524;-5.636;2023-06-04T07:32:24;19.53;;;11.63;;
80557;SDS011;69901;43.524;-5.636;2023-06-04T07:34:49;21.10;;;11.57;;
80557;SDS011;69901;43.524;-5.636;2023-06-04T07:37:15;18.37;;;10.87;;
80557;SDS011;69901;43.524;-5.636;2023-06-04T07:39:40;18.67;;;9.93;;
80557;SDS011;69901;43.524;-5.636;2023-06-04T07:42:06;20.00;;;10.57;;
80557;SDS011;69901;43.524;-5.636;2023-06-04T07:44:32;20.33;;;10.90;;
80557;SDS011;69901;43.524;-5.636;2023-06-04T07:46:57;17.15;;;10.00;;
80557;SDS011;69901;43.524;-5.636;2023-06-04T07:49:23;16.00;;;9.30;;
80557;SDS011;69901;43.524;-5.636;2023-06-04T07:51:48;18.47;;;9.20;;
80557;SDS011;69901;43.524;-5.636;2023-06-04T07:54:13;16.53;;;8.70;;
80557;SDS011;69901;43.524;-5.636;2023-06-04T07:56:39;17.73;;;9.63;;
80557;SDS011;69901;43.524;-5.636;2023-06-04T07:59:05;16.08;;;10.10;;
80557;SDS011;69901;43.524;-5.636;2023-06-04T08:01:30;18.73;;;9.60;;
80557;SDS011;69901;43.524;-5.636;2023-06-04T08:03:55;16.57;;;9.40;;
80557;SDS011;69901;43.524;-5.636;2023-06-04T08:06:21;16.20;;;9.10;;
80557;SDS011;69901;43.524;-5.636;2023-06-04T08:08:46;15.50;;;8.87;;
80557;SDS011;69901;43.524;-5.636;2023-06-04T08:11:13;16.60;;;8.68;;
80557;SDS011;69901;43.524;-5.636;2023-06-04T08:13:39;16.63;;;9.13;;
80557;SDS011;69901;43.524;-5.636;2023-06-04T08:16:04;14.07;;;8.77;;
80557;SDS011;69901;43.524;-5.636;2023-06-04T08:18:30;14.30;;;8.97;;
80557;SDS011;69901;43.524;-5.636;2023-06-04T08:20:55;15.93;;;9.37;;
80557;SDS011;69901;43.524;-5.636;2023-06-04T08:23:20;13.43;;;8.30;;
80557;SDS011;69901;43.524;-5.636;2023-06-04T08:25:46;12.83;;;9.00;;
80557;SDS011;69901;43.524;-5.636;2023-06-04T08:28:13;14.73;;;9.43;;
80557;SDS011;69901;43.524;-5.636;2023-06-04T08:30:38;16.33;;;9.90;;
80557;SDS011;69901;43.524;-5.636;2023-06-04T08:33:03;15.70;;;8.60;;
80557;SDS011;69901;43.524;-5.636;2023-06-04T08:35:29;15.30;;;8.60;;
80557;SDS011;69901;43.524;-5.636;2023-06-04T08:37:54;15.23;;;8.30;;
80557;SDS011;69901;43.524;-5.636;2023-06-04T08:40:19;14.73;;;8.67;;
80557;SDS011;69901;43.524;-5.636;2023-06-04T08:42:45;14.47;;;9.13;;
80557;SDS011;69901;43.524;-5.636;2023-06-04T08:45:12;14.50;;;8.50;;
80557;SDS011;69901;43.524;-5.636;2023-06-04T08:47:43;15.88;;;8.98;;
80557;SDS011;69901;43.524;-5.636;2023-06-04T08:50:09;14.48;;;8.95;;
80557;SDS011;69901;43.524;-5.636;2023-06-04T08:52:35;16.17;;;9.23;;
80557;SDS011;69901;43.524;-5.636;2023-06-04T08:55:00;15.10;;;9.35;;
80557;SDS011;69901;43.524;-5.636;2023-06-04T08:57:26;17.13;;;9.40;;
80557;SDS011;69901;43.524;-5.636;2023-06-04T08:59:52;16.15;;;9.13;;
80557;SDS011;69901;43.524;-5.636;2023-06-04T09:02:17;15.23;;;8.43;;
80557;SDS011;69901;43.524;-5.636;2023-06-04T09:04:43;15.13;;;8.80;;
80557;SDS011;69901;43.524;-5.636;2023-06-04T09:07:10;16.30;;;9.43;;
80557;SDS011;69901;43.524;-5.636;2023-06-04T09:09:37;14.20;;;8.27;;
80557;SDS011;69901;43.524;-5.636;2023-06-04T09:12:03;13.43;;;8.65;;
80557;SDS011;69901;43.524;-5.636;2023-06-04T09:14:29;15.27;;;9.43;;
80557;SDS011;69901;43.524;-5.636;2023-06-04T09:16:55;16.17;;;8.77;;
80557;SDS011;69901;43.524;-5.636;2023-06-04T09:19:23;17.17;;;9.17;;
80557;SDS011;69901;43.524;-5.636;2023-06-04T09:21:49;15.35;;;8.60;;
80557;SDS011;69901;43.524;-5.636;2023-06-04T09:24:15;15.70;;;9.23;;
80557;SDS011;69901;43.524;-5.636;2023-06-04T09:26:40;14.52;;;7.90;;
80557;SDS011;69901;43.524;-5.636;2023-06-04T09:29:06;15.60;;;9.73;;
80557;SDS011;69901;43.524;-5.636;2023-06-04T09:31:31;13.33;;;8.13;;
80557;SDS011;69901;43.524;-5.636;2023-06-04T09:34:02;14.45;;;9.20;;
80557;SDS011;69901;43.524;-5.636;2023-06-04T09:36:30;13.57;;;8.37;;
80557;SDS011;69901;43.524;-5.636;2023-06-04T09:38:56;17.17;;;8.95;;
80557;SDS011;69901;43.524;-5.636;2023-06-04T09:41:21;15.43;;;9.30;;
80557;SDS011;69901;43.524;-5.636;2023-06-04T09:43:47;14.48;;;9.32;;
80557;SDS011;69901;43.524;-5.636;2023-06-04T09:46:16;15.23;;;8.73;;
80557;SDS011;69901;43.524;-5.636;2023-06-04T09:48:41;15.57;;;9.07;;
80557;SDS011;69901;43.524;-5.636;2023-06-04T09:53:32;16.37;;;9.33;;
80557;SDS011;69901;43.524;-5.636;2023-06-04T09:56:00;17.17;;;9.77;;
80557;SDS011;69901;43.524;-5.636;2023-06-04T09:58:26;18.38;;;9.52;;
80557;SDS011;69901;43.524;-5.636;2023-06-04T10:00:52;17.98;;;9.80;;
80557;SDS011;69901;43.524;-5.636;2023-06-04T10:03:18;16.95;;;9.15;;
80557;SDS011;69901;43.524;-5.636;2023-06-04T10:05:48;17.13;;;9.18;;
80557;SDS011;69901;43.524;-5.636;2023-06-04T10:08:14;19.33;;;9.57;;
80557;SDS011;69901;43.524;-5.636;2023-06-04T10:10:41;18.02;;;9.63;;
80557;SDS011;69901;43.524;-5.636;2023-06-04T10:13:08;17.03;;;9.47;;
80557;SDS011;69901;43.524;-5.636;2023-06-04T10:15:35;16.70;;;9.13;;
80557;SDS011;69901;43.524;-5.636;2023-06-04T10:18:01;17.63;;;10.02;;
80557;SDS011;69901;43.524;-5.636;2023-06-04T10:20:27;16.13;;;9.47;;
80557;SDS011;69901;43.524;-5.636;2023-06-04T10:22:52;16.75;;;9.30;;
80557;SDS011;69901;43.524;-5.636;2023-06-04T10:25:18;17.23;;;9.33;;
80557;SDS011;69901;43.524;-5.636;2023-06-04T10:27:44;15.18;;;8.70;;
80557;SDS011;69901;43.524;-5.636;2023-06-04T10:30:11;14.00;;;9.02;;
80557;SDS011;69901;43.524;-5.636;2023-06-04T10:32:37;17.00;;;9.70;;
80557;SDS011;69901;43.524;-5.636;2023-06-04T10:35:05;17.10;;;10.27;;
80557;SDS011;69901;43.524;-5.636;2023-06-04T10:37:32;16.85;;;9.00;;
80557;SDS011;69901;43.524;-5.636;2023-06-04T10:39:58;15.47;;;8.60;;
80557;SDS011;69901;43.524;-5.636;2023-06-04T10:42:23;19.83;;;8.97;;
80557;SDS011;69901;43.524;-5.636;2023-06-04T10:44:50;15.43;;;8.75;;
80557;SDS011;69901;43.524;-5.636;2023-06-04T10:47:22;15.63;;;9.33;;
80557;SDS011;69901;43.524;-5.636;2023-06-04T10:49:49;16.55;;;9.70;;
80557;SDS011;69901;43.524;-5.636;2023-06-04T10:52:14;19.25;;;9.77;;
80557;SDS011;69901;43.524;-5.636;2023-06-04T10:54:40;17.17;;;9.77;;
80557;SDS011;69901;43.524;-5.636;2023-06-04T10:57:12;13.63;;;8.57;;
80557;SDS011;69901;43.524;-5.636;2023-06-04T10:59:38;17.55;;;9.82;;
80557;SDS011;69901;43.524;-5.636;2023-06-04T11:02:09;16.63;;;9.03;;
80557;SDS011;69901;43.524;-5.636;2023-06-04T11:04:35;13.77;;;8.57;;
80557;SDS011;69901;43.524;-5.636;2023-06-04T11:09:28;15.32;;;9.48;;
80557;SDS011;69901;43.524;-5.636;2023-06-04T11:11:57;16.92;;;9.13;;
80557;SDS011;69901;43.524;-5.636;2023-06-04T11:14:23;19.00;;;9.70;;
80557;SDS011;69901;43.524;-5.636;2023-06-04T11:16:48;16.43;;;8.97;;
80557;SDS011;69901;43.524;-5.636;2023-06-04T11:19:13;15.23;;;9.60;;
80557;SDS011;69901;43.524;-5.636;2023-06-04T11:21:38;16.67;;;9.60;;
80557;SDS011;69901;43.524;-5.636;2023-06-04T11:24:04;18.63;;;9.57;;
80557;SDS011;69901;43.524;-5.636;2023-06-04T11:26:33;16.63;;;9.73;;
80557;SDS011;69901;43.524;-5.636;2023-06-04T11:28:58;17.25;;;9.27;;
80557;SDS011;69901;43.524;-5.636;2023-06-04T11:31:24;15.15;;;8.82;;
80557;SDS011;69901;43.524;-5.636;2023-06-04T11:33:50;16.73;;;9.37;;
80557;SDS011;69901;43.524;-5.636;2023-06-04T11:36:22;14.13;;;8.47;;
80557;SDS011;69901;43.524;-5.636;2023-06-04T11:38:57;16.70;;;10.00;;
80557;SDS011;69901;43.524;-5.636;2023-06-04T11:41:23;16.27;;;9.05;;
80557;SDS011;69901;43.524;-5.636;2023-06-04T11:43:49;15.25;;;8.52;;
80557;SDS011;69901;43.524;-5.636;2023-06-04T11:46:14;15.40;;;8.87;;
80557;SDS011;69901;43.524;-5.636;2023-06-04T11:48:39;15.07;;;8.67;;
80557;SDS011;69901;43.524;-5.636;2023-06-04T11:51:08;16.63;;;9.17;;
80557;SDS011;69901;43.524;-5.636;2023-06-04T11:53:36;17.13;;;9.65;;
80557;SDS011;69901;43.524;-5.636;2023-06-04T11:56:02;15.05;;;8.90;;
80557;SDS011;69901;43.524;-5.636;2023-06-04T11:58:29;16.25;;;9.25;;
80557;SDS011;69901;43.524;-5.636;2023-06-04T12:00:55;16.48;;;10.10;;
80557;SDS011;69901;43.524;-5.636;2023-06-04T12:03:35;17.93;;;9.83;;
80557;SDS011;69901;43.524;-5.636;2023-06-04T12:06:15;16.83;;;8.93;;
80557;SDS011;69901;43.524;-5.636;2023-06-04T12:08:59;17.58;;;10.52;;
80557;SDS011;69901;43.524;-5.636;2023-06-04T12:11:26;16.27;;;9.75;;
80557;SDS011;69901;43.524;-5.636;2023-06-04T12:13:56;16.80;;;9.43;;
80557;SDS011;69901;43.524;-5.636;2023-06-04T12:16:22;15.77;;;9.97;;
80557;SDS011;69901;43.524;-5.636;2023-06-04T12:18:47;17.27;;;9.67;;
80557;SDS011;69901;43.524;-5.636;2023-06-04T12:21:17;16.73;;;9.50;;
80557;SDS011;69901;43.524;-5.636;2023-06-04T12:23:44;17.95;;;10.07;;
80557;SDS011;69901;43.524;-5.636;2023-06-04T12:26:19;15.97;;;9.27;;
80557;SDS011;69901;43.524;-5.636;2023-06-04T12:28:44;21.75;;;11.25;;
80557;SDS011;69901;43.524;-5.636;2023-06-04T12:31:16;18.30;;;9.67;;
80557;SDS011;69901;43.524;-5.636;2023-06-04T12:33:42;16.27;;;10.00;;
80557;SDS011;69901;43.524;-5.636;2023-06-04T12:36:08;17.60;;;9.73;;
80557;SDS011;69901;43.524;-5.636;2023-06-04T12:38:33;20.80;;;10.73;;
80557;SDS011;69901;43.524;-5.636;2023-06-04T12:40:58;17.70;;;10.67;;
80557;SDS011;69901;43.524;-5.636;2023-06-04T12:43:24;15.27;;;10.30;;
80557;SDS011;69901;43.524;-5.636;2023-06-04T12:45:51;16.10;;;9.27;;
80557;SDS011;69901;43.524;-5.636;2023-06-04T12:48:16;18.43;;;10.03;;
80557;SDS011;69901;43.524;-5.636;2023-06-04T12:50:41;14.73;;;8.83;;
80557;SDS011;69901;43.524;-5.636;2023-06-04T12:53:06;17.87;;;10.23;;
80557;SDS011;69901;43.524;-5.636;2023-06-04T12:55:32;16.60;;;9.60;;
80557;SDS011;69901;43.524;-5.636;2023-06-04T12:57:57;18.07;;;9.40;;
80557;SDS011;69901;43.524;-5.636;2023-06-04T13:00:22;17.23;;;8.93;;
80557;SDS011;69901;43.524;-5.636;2023-06-04T13:02:48;14.17;;;8.80;;
80557;SDS011;69901;43.524;-5.636;2023-06-04T13:05:13;15.03;;;9.17;;
80557;SDS011;69901;43.524;-5.636;2023-06-04T13:07:38;13.87;;;8.30;;
80557;SDS011;69901;43.524;-5.636;2023-06-04T13:10:03;15.07;;;8.10;;
80557;SDS011;69901;43.524;-5.636;2023-06-04T13:12:29;13.93;;;8.20;;
80557;SDS011;69901;43.524;-5.636;2023-06-04T13:14:54;13.95;;;8.75;;
80557;SDS011;69901;43.524;-5.636;2023-06-04T13:17:20;15.13;;;8.27;;
80557;SDS011;69901;43.524;-5.636;2023-06-04T13:19:46;15.77;;;8.10;;
80557;SDS011;69901;43.524;-5.636;2023-06-04T13:22:11;12.77;;;7.73;;
80557;SDS011;69901;43.524;-5.636;2023-06-04T13:24:36;15.10;;;7.77;;
80557;SDS011;69901;43.524;-5.636;2023-06-04T13:27:02;14.90;;;7.83;;
80557;SDS011;69901;43.524;-5.636;2023-06-04T13:29:27;14.40;;;7.87;;
80557;SDS011;69901;43.524;-5.636;2023-06-04T13:31:52;14.20;;;7.67;;
80557;SDS011;69901;43.524;-5.636;2023-06-04T13:34:18;11.43;;;7.47;;
80557;SDS011;69901;43.524;-5.636;2023-06-04T13:36:43;13.03;;;6.83;;
80557;SDS011;69901;43.524;-5.636;2023-06-04T13:39:08;12.73;;;7.47;;
80557;SDS011;69901;43.524;-5.636;2023-06-04T13:41:34;13.93;;;7.60;;
80557;SDS011;69901;43.524;-5.636;2023-06-04T13:43:59;14.43;;;7.73;;
80557;SDS011;69901;43.524;-5.636;2023-06-04T13:46:24;13.13;;;7.67;;
80557;SDS011;69901;43.524;-5.636;2023-06-04T13:48:50;12.90;;;6.97;;
80557;SDS011;69901;43.524;-5.636;2023-06-04T13:51:15;12.07;;;7.60;;
80557;SDS011;69901;43.524;-5.636;2023-06-04T13:53:40;15.47;;;8.10;;
80557;SDS011;69901;43.524;-5.636;2023-06-04T13:56:06;14.10;;;6.93;;
80557;SDS011;69901;43.524;-5.636;2023-06-04T13:58:31;16.03;;;7.40;;
80557;SDS011;69901;43.524;-5.636;2023-06-04T14:00:56;14.67;;;7.27;;
80557;SDS011;69901;43.524;-5.636;2023-06-04T14:03:22;12.40;;;6.80;;
80557;SDS011;69901;43.524;-5.636;2023-06-04T14:05:47;11.53;;;6.93;;
80557;SDS011;69901;43.524;-5.636;2023-06-04T14:08:12;16.10;;;7.70;;
80557;SDS011;69901;43.524;-5.636;2023-06-04T14:10:38;16.37;;;7.17;;
80557;SDS011;69901;43.524;-5.636;2023-06-04T14:13:06;12.48;;;6.80;;
80557;SDS011;69901;43.524;-5.636;2023-06-04T14:15:31;15.37;;;7.43;;
80557;SDS011;69901;43.524;-5.636;2023-06-04T14:17:57;13.47;;;6.70;;
80557;SDS011;69901;43.524;-5.636;2023-06-04T14:20:22;13.53;;;6.67;;